sensor_id;sensor_type;location;lat;lon;timestamp;P1;durP1;ratioP1;P2;durP2;ratioP2
25023;SDS011;13033;50.936;5.334;2023-06-26T00:00:03;7.75;;;6.95;;
25023;SDS011;13033;50.936;5.334;2023-06-26T00:02:30;9.38;;;7.53;;
25023;SDS011;13033;50.936;5.334;2023-06-26T00:04:58;8.15;;;7.10;;
25023;SDS011;13033;50.936;5.334;2023-06-26T00:07:27;9.30;;;6.70;;
25023;SDS011;13033;50.936;5.334;2023-06-26T00:09:53;7.70;;;6.40;;
25023;SDS011;13033;50.936;5.334;2023-06-26T00:12:19;7.05;;;6.22;;
25023;SDS011;13033;50.936;5.334;2023-06-26T00:14:44;8.50;;;6.72;;
25023;SDS011;13033;50.936;5.334;2023-06-26T00:17:11;8.45;;;6.22;;
25023;SDS011;13033;50.936;5.334;2023-06-26T00:19:36;7.25;;;6.50;;
25023;SDS011;13033;50.936;5.334;2023-06-26T00:22:02;12.15;;;6.82;;
25023;SDS011;13033;50.936;5.334;2023-06-26T00:24:28;7.57;;;6.78;;
25023;SDS011;13033;50.936;5.334;2023-06-26T00:26:53;8.43;;;6.43;;
25023;SDS011;13033;50.936;5.334;2023-06-26T00:29:19;10.20;;;6.50;;
25023;SDS011;13033;50.936;5.334;2023-06-26T00:31:45;8.57;;;6.82;;
25023;SDS011;13033;50.936;5.334;2023-06-26T00:34:10;8.43;;;6.72;;
25023;SDS011;13033;50.936;5.334;2023-06-26T00:36:36;7.13;;;6.38;;
25023;SDS011;13033;50.936;5.334;2023-06-26T00:39:01;8.02;;;6.18;;
25023;SDS011;13033;50.936;5.334;2023-06-26T00:41:28;7.10;;;6.30;;
25023;SDS011;13033;50.936;5.334;2023-06-26T00:43:54;8.68;;;6.80;;
25023;SDS011;13033;50.936;5.334;2023-06-26T00:46:20;7.88;;;6.93;;
25023;SDS011;13033;50.936;5.334;2023-06-26T00:48:46;8.50;;;6.50;;
25023;SDS011;13033;50.936;5.334;2023-06-26T00:51:14;8.98;;;6.72;;
25023;SDS011;13033;50.936;5.334;2023-06-26T00:53:40;7.55;;;6.78;;
25023;SDS011;13033;50.936;5.334;2023-06-26T00:56:06;8.45;;;6.32;;
25023;SDS011;13033;50.936;5.334;2023-06-26T00:58:33;7.57;;;6.75;;
25023;SDS011;13033;50.936;5.334;2023-06-26T01:00:59;8.13;;;7.03;;
25023;SDS011;13033;50.936;5.334;2023-06-26T01:03:25;10.13;;;7.15;;
25023;SDS011;13033;50.936;5.334;2023-06-26T01:05:51;7.40;;;6.13;;
25023;SDS011;13033;50.936;5.334;2023-06-26T01:08:19;8.35;;;6.57;;
25023;SDS011;13033;50.936;5.334;2023-06-26T01:10:46;9.00;;;6.90;;
25023;SDS011;13033;50.936;5.334;2023-06-26T01:13:13;6.88;;;5.78;;
25023;SDS011;13033;50.936;5.334;2023-06-26T01:15:39;7.53;;;6.32;;
25023;SDS011;13033;50.936;5.334;2023-06-26T01:18:05;8.43;;;5.68;;
25023;SDS011;13033;50.936;5.334;2023-06-26T01:20:32;9.23;;;5.93;;
25023;SDS011;13033;50.936;5.334;2023-06-26T01:23:20;8.20;;;6.30;;
25023;SDS011;13033;50.936;5.334;2023-06-26T01:28:41;8.43;;;5.90;;
25023;SDS011;13033;50.936;5.334;2023-06-26T01:31:08;9.10;;;5.97;;
25023;SDS011;13033;50.936;5.334;2023-06-26T01:33:35;10.48;;;6.13;;
25023;SDS011;13033;50.936;5.334;2023-06-26T01:36:01;6.72;;;5.60;;
25023;SDS011;13033;50.936;5.334;2023-06-26T01:38:27;8.20;;;5.65;;
25023;SDS011;13033;50.936;5.334;2023-06-26T01:40:53;10.63;;;6.20;;
25023;SDS011;13033;50.936;5.334;2023-06-26T01:45:51;6.93;;;6.07;;
25023;SDS011;13033;50.936;5.334;2023-06-26T01:48:20;8.50;;;6.22;;
25023;SDS011;13033;50.936;5.334;2023-06-26T01:50:51;10.27;;;6.00;;
25023;SDS011;13033;50.936;5.334;2023-06-26T01:53:19;9.57;;;6.40;;
25023;SDS011;13033;50.936;5.334;2023-06-26T01:55:55;8.70;;;6.53;;
25023;SDS011;13033;50.936;5.334;2023-06-26T01:58:37;11.30;;;6.68;;
25023;SDS011;13033;50.936;5.334;2023-06-26T02:01:08;9.57;;;6.75;;
25023;SDS011;13033;50.936;5.334;2023-06-26T02:03:34;9.13;;;6.43;;
25023;SDS011;13033;50.936;5.334;2023-06-26T02:05:59;9.38;;;6.95;;
25023;SDS011;13033;50.936;5.334;2023-06-26T02:08:25;11.05;;;7.00;;
25023;SDS011;13033;50.936;5.334;2023-06-26T02:10:51;12.80;;;6.75;;
25023;SDS011;13033;50.936;5.334;2023-06-26T02:13:16;8.23;;;6.10;;
25023;SDS011;13033;50.936;5.334;2023-06-26T02:15:42;9.10;;;6.25;;
25023;SDS011;13033;50.936;5.334;2023-06-26T02:18:08;12.68;;;5.90;;
25023;SDS011;13033;50.936;5.334;2023-06-26T02:20:33;7.72;;;5.93;;
25023;SDS011;13033;50.936;5.334;2023-06-26T02:22:59;10.82;;;5.93;;
25023;SDS011;13033;50.936;5.334;2023-06-26T02:25:25;9.57;;;6.30;;
25023;SDS011;13033;50.936;5.334;2023-06-26T02:27:50;7.68;;;5.90;;
25023;SDS011;13033;50.936;5.334;2023-06-26T02:30:16;7.13;;;5.80;;
25023;SDS011;13033;50.936;5.334;2023-06-26T02:32:42;8.15;;;5.68;;
25023;SDS011;13033;50.936;5.334;2023-06-26T02:35:08;8.68;;;5.93;;
25023;SDS011;13033;50.936;5.334;2023-06-26T02:37:33;10.80;;;5.80;;
25023;SDS011;13033;50.936;5.334;2023-06-26T02:39:59;7.13;;;5.70;;
25023;SDS011;13033;50.936;5.334;2023-06-26T02:42:25;9.88;;;6.00;;
25023;SDS011;13033;50.936;5.334;2023-06-26T02:44:50;8.75;;;5.45;;
25023;SDS011;13033;50.936;5.334;2023-06-26T02:47:16;9.40;;;5.20;;
25023;SDS011;13033;50.936;5.334;2023-06-26T02:49:42;11.70;;;5.68;;
25023;SDS011;13033;50.936;5.334;2023-06-26T02:52:08;14.15;;;6.25;;
25023;SDS011;13033;50.936;5.334;2023-06-26T02:54:33;7.75;;;5.10;;
25023;SDS011;13033;50.936;5.334;2023-06-26T02:56:59;8.52;;;5.40;;
25023;SDS011;13033;50.936;5.334;2023-06-26T02:59:25;9.70;;;5.63;;
25023;SDS011;13033;50.936;5.334;2023-06-26T03:01:51;7.57;;;4.95;;
25023;SDS011;13033;50.936;5.334;2023-06-26T03:04:17;12.77;;;5.50;;
25023;SDS011;13033;50.936;5.334;2023-06-26T03:06:43;9.20;;;5.03;;
25023;SDS011;13033;50.936;5.334;2023-06-26T03:09:09;7.53;;;4.60;;
25023;SDS011;13033;50.936;5.334;2023-06-26T03:11:34;7.00;;;4.80;;
25023;SDS011;13033;50.936;5.334;2023-06-26T03:14:00;8.48;;;4.93;;
25023;SDS011;13033;50.936;5.334;2023-06-26T03:16:26;10.25;;;5.10;;
25023;SDS011;13033;50.936;5.334;2023-06-26T03:18:51;7.55;;;4.88;;
25023;SDS011;13033;50.936;5.334;2023-06-26T03:21:17;11.07;;;4.93;;
25023;SDS011;13033;50.936;5.334;2023-06-26T03:23:42;9.90;;;5.13;;
25023;SDS011;13033;50.936;5.334;2023-06-26T03:26:08;7.15;;;4.97;;
25023;SDS011;13033;50.936;5.334;2023-06-26T03:28:34;6.25;;;4.25;;
25023;SDS011;13033;50.936;5.334;2023-06-26T03:30:59;6.75;;;4.30;;
25023;SDS011;13033;50.936;5.334;2023-06-26T03:33:25;7.50;;;4.55;;
25023;SDS011;13033;50.936;5.334;2023-06-26T03:35:51;5.93;;;4.63;;
25023;SDS011;13033;50.936;5.334;2023-06-26T03:38:16;6.53;;;4.63;;
25023;SDS011;13033;50.936;5.334;2023-06-26T03:40:42;5.78;;;4.13;;
25023;SDS011;13033;50.936;5.334;2023-06-26T03:43:08;7.63;;;5.13;;
25023;SDS011;13033;50.936;5.334;2023-06-26T03:45:33;8.57;;;4.93;;
25023;SDS011;13033;50.936;5.334;2023-06-26T03:47:59;7.45;;;4.70;;
25023;SDS011;13033;50.936;5.334;2023-06-26T03:50:24;6.28;;;4.10;;
25023;SDS011;13033;50.936;5.334;2023-06-26T03:52:50;6.50;;;4.38;;
25023;SDS011;13033;50.936;5.334;2023-06-26T03:55:17;8.23;;;4.65;;
25023;SDS011;13033;50.936;5.334;2023-06-26T03:57:42;7.70;;;4.70;;
25023;SDS011;13033;50.936;5.334;2023-06-26T04:00:08;7.45;;;4.40;;
25023;SDS011;13033;50.936;5.334;2023-06-26T04:02:37;6.18;;;4.20;;
25023;SDS011;13033;50.936;5.334;2023-06-26T04:05:03;7.18;;;4.45;;
25023;SDS011;13033;50.936;5.334;2023-06-26T04:07:29;9.98;;;4.50;;
25023;SDS011;13033;50.936;5.334;2023-06-26T04:09:56;7.80;;;4.60;;
25023;SDS011;13033;50.936;5.334;2023-06-26T04:12:22;10.65;;;4.60;;
25023;SDS011;13033;50.936;5.334;2023-06-26T04:14:48;7.35;;;4.25;;
25023;SDS011;13033;50.936;5.334;2023-06-26T04:17:13;6.95;;;4.35;;
25023;SDS011;13033;50.936;5.334;2023-06-26T04:19:39;7.13;;;4.57;;
25023;SDS011;13033;50.936;5.334;2023-06-26T04:22:05;8.40;;;4.45;;
25023;SDS011;13033;50.936;5.334;2023-06-26T04:24:30;7.00;;;4.47;;
25023;SDS011;13033;50.936;5.334;2023-06-26T04:26:56;8.57;;;4.50;;
25023;SDS011;13033;50.936;5.334;2023-06-26T04:29:22;9.48;;;4.65;;
25023;SDS011;13033;50.936;5.334;2023-06-26T04:31:50;9.27;;;4.60;;
25023;SDS011;13033;50.936;5.334;2023-06-26T04:34:16;8.18;;;4.68;;
25023;SDS011;13033;50.936;5.334;2023-06-26T04:36:42;7.50;;;4.50;;
25023;SDS011;13033;50.936;5.334;2023-06-26T04:39:13;7.90;;;5.03;;
25023;SDS011;13033;50.936;5.334;2023-06-26T04:41:40;11.48;;;4.82;;
25023;SDS011;13033;50.936;5.334;2023-06-26T04:44:06;7.55;;;4.60;;
25023;SDS011;13033;50.936;5.334;2023-06-26T04:46:31;8.27;;;4.60;;
25023;SDS011;13033;50.936;5.334;2023-06-26T04:48:57;9.60;;;5.10;;
25023;SDS011;13033;50.936;5.334;2023-06-26T04:51:23;10.35;;;4.85;;
25023;SDS011;13033;50.936;5.334;2023-06-26T04:53:53;8.52;;;4.95;;
25023;SDS011;13033;50.936;5.334;2023-06-26T04:56:19;10.75;;;4.57;;
25023;SDS011;13033;50.936;5.334;2023-06-26T04:58:45;11.27;;;4.80;;
25023;SDS011;13033;50.936;5.334;2023-06-26T05:01:10;12.70;;;5.40;;
25023;SDS011;13033;50.936;5.334;2023-06-26T05:03:38;11.68;;;5.20;;
25023;SDS011;13033;50.936;5.334;2023-06-26T05:06:04;11.30;;;5.25;;
25023;SDS011;13033;50.936;5.334;2023-06-26T05:08:30;9.93;;;5.65;;
25023;SDS011;13033;50.936;5.334;2023-06-26T05:10:56;10.70;;;4.75;;
25023;SDS011;13033;50.936;5.334;2023-06-26T05:13:23;15.40;;;4.97;;
25023;SDS011;13033;50.936;5.334;2023-06-26T05:15:50;12.07;;;5.20;;
25023;SDS011;13033;50.936;5.334;2023-06-26T05:18:16;12.82;;;5.50;;
25023;SDS011;13033;50.936;5.334;2023-06-26T05:20:42;9.10;;;4.82;;
25023;SDS011;13033;50.936;5.334;2023-06-26T05:23:08;13.07;;;5.45;;
25023;SDS011;13033;50.936;5.334;2023-06-26T05:25:37;11.13;;;5.50;;
25023;SDS011;13033;50.936;5.334;2023-06-26T05:28:03;11.85;;;5.30;;
25023;SDS011;13033;50.936;5.334;2023-06-26T05:30:33;10.75;;;5.13;;
25023;SDS011;13033;50.936;5.334;2023-06-26T05:33:00;12.10;;;4.97;;
25023;SDS011;13033;50.936;5.334;2023-06-26T05:35:30;14.00;;;5.47;;
25023;SDS011;13033;50.936;5.334;2023-06-26T05:37:56;13.27;;;5.18;;
25023;SDS011;13033;50.936;5.334;2023-06-26T05:40:23;13.63;;;5.05;;
25023;SDS011;13033;50.936;5.334;2023-06-26T05:42:50;14.00;;;5.32;;
25023;SDS011;13033;50.936;5.334;2023-06-26T05:45:16;14.43;;;5.10;;
25023;SDS011;13033;50.936;5.334;2023-06-26T05:47:42;12.38;;;4.55;;
25023;SDS011;13033;50.936;5.334;2023-06-26T05:50:16;12.35;;;5.18;;
25023;SDS011;13033;50.936;5.334;2023-06-26T05:52:43;10.77;;;5.18;;
25023;SDS011;13033;50.936;5.334;2023-06-26T05:55:09;12.38;;;4.30;;
25023;SDS011;13033;50.936;5.334;2023-06-26T05:57:36;15.88;;;4.88;;
25023;SDS011;13033;50.936;5.334;2023-06-26T06:00:02;12.82;;;4.70;;
25023;SDS011;13033;50.936;5.334;2023-06-26T06:02:35;15.55;;;5.20;;
25023;SDS011;13033;50.936;5.334;2023-06-26T06:05:04;16.13;;;5.15;;
25023;SDS011;13033;50.936;5.334;2023-06-26T06:07:31;17.30;;;5.60;;
25023;SDS011;13033;50.936;5.334;2023-06-26T06:09:58;15.57;;;4.88;;
25023;SDS011;13033;50.936;5.334;2023-06-26T06:12:24;11.45;;;4.70;;
25023;SDS011;13033;50.936;5.334;2023-06-26T06:14:49;15.23;;;4.40;;
25023;SDS011;13033;50.936;5.334;2023-06-26T06:17:15;19.48;;;4.80;;
25023;SDS011;13033;50.936;5.334;2023-06-26T06:19:41;18.08;;;4.72;;
25023;SDS011;13033;50.936;5.334;2023-06-26T06:22:07;15.75;;;4.63;;
25023;SDS011;13033;50.936;5.334;2023-06-26T06:24:32;15.32;;;4.75;;
25023;SDS011;13033;50.936;5.334;2023-06-26T06:26:58;12.13;;;4.30;;
25023;SDS011;13033;50.936;5.334;2023-06-26T06:29:23;14.00;;;4.85;;
25023;SDS011;13033;50.936;5.334;2023-06-26T06:31:49;18.45;;;5.57;;
25023;SDS011;13033;50.936;5.334;2023-06-26T06:34:16;15.93;;;4.72;;
25023;SDS011;13033;50.936;5.334;2023-06-26T06:36:42;11.65;;;4.18;;
25023;SDS011;13033;50.936;5.334;2023-06-26T06:39:07;11.35;;;4.20;;
25023;SDS011;13033;50.936;5.334;2023-06-26T06:41:33;10.80;;;3.60;;
25023;SDS011;13033;50.936;5.334;2023-06-26T06:43:59;15.70;;;4.28;;
25023;SDS011;13033;50.936;5.334;2023-06-26T06:46:24;12.38;;;4.25;;
25023;SDS011;13033;50.936;5.334;2023-06-26T06:48:52;10.32;;;4.00;;
25023;SDS011;13033;50.936;5.334;2023-06-26T06:51:18;11.15;;;4.35;;
25023;SDS011;13033;50.936;5.334;2023-06-26T06:53:43;12.82;;;3.92;;
25023;SDS011;13033;50.936;5.334;2023-06-26T06:56:09;15.35;;;4.50;;
25023;SDS011;13033;50.936;5.334;2023-06-26T06:58:34;14.35;;;4.70;;
25023;SDS011;13033;50.936;5.334;2023-06-26T07:01:01;17.70;;;4.55;;
25023;SDS011;13033;50.936;5.334;2023-06-26T07:03:29;12.57;;;3.70;;
25023;SDS011;13033;50.936;5.334;2023-06-26T07:05:55;13.10;;;3.83;;
25023;SDS011;13033;50.936;5.334;2023-06-26T07:08:21;13.90;;;4.22;;
25023;SDS011;13033;50.936;5.334;2023-06-26T07:10:47;16.00;;;4.30;;
25023;SDS011;13033;50.936;5.334;2023-06-26T07:13:12;13.00;;;4.22;;
25023;SDS011;13033;50.936;5.334;2023-06-26T07:15:38;14.95;;;4.35;;
25023;SDS011;13033;50.936;5.334;2023-06-26T07:18:04;11.77;;;4.18;;
25023;SDS011;13033;50.936;5.334;2023-06-26T07:20:29;13.45;;;3.80;;
25023;SDS011;13033;50.936;5.334;2023-06-26T07:22:55;14.00;;;3.50;;
25023;SDS011;13033;50.936;5.334;2023-06-26T07:25:21;13.80;;;3.60;;
25023;SDS011;13033;50.936;5.334;2023-06-26T07:27:46;12.07;;;3.63;;
25023;SDS011;13033;50.936;5.334;2023-06-26T07:30:12;11.73;;;3.60;;
25023;SDS011;13033;50.936;5.334;2023-06-26T07:32:38;10.38;;;3.58;;
25023;SDS011;13033;50.936;5.334;2023-06-26T07:35:05;13.15;;;4.30;;
25023;SDS011;13033;50.936;5.334;2023-06-26T07:37:31;10.25;;;4.30;;
25023;SDS011;13033;50.936;5.334;2023-06-26T07:39:57;11.45;;;3.65;;
25023;SDS011;13033;50.936;5.334;2023-06-26T07:42:23;11.13;;;3.40;;
25023;SDS011;13033;50.936;5.334;2023-06-26T07:44:48;10.20;;;3.40;;
25023;SDS011;13033;50.936;5.334;2023-06-26T07:47:14;11.75;;;3.78;;
25023;SDS011;13033;50.936;5.334;2023-06-26T07:49:40;13.52;;;3.55;;
25023;SDS011;13033;50.936;5.334;2023-06-26T07:52:06;11.50;;;4.00;;
25023;SDS011;13033;50.936;5.334;2023-06-26T07:54:32;11.70;;;4.05;;
25023;SDS011;13033;50.936;5.334;2023-06-26T07:57:01;13.30;;;3.85;;
25023;SDS011;13033;50.936;5.334;2023-06-26T07:59:29;11.30;;;3.63;;
25023;SDS011;13033;50.936;5.334;2023-06-26T08:01:56;12.18;;;3.15;;
25023;SDS011;13033;50.936;5.334;2023-06-26T08:04:23;11.15;;;3.15;;
25023;SDS011;13033;50.936;5.334;2023-06-26T08:06:53;7.72;;;3.20;;
25023;SDS011;13033;50.936;5.334;2023-06-26T08:09:21;8.07;;;2.92;;
25023;SDS011;13033;50.936;5.334;2023-06-26T08:11:52;11.20;;;3.30;;
25023;SDS011;13033;50.936;5.334;2023-06-26T08:14:18;9.98;;;3.17;;
25023;SDS011;13033;50.936;5.334;2023-06-26T08:16:44;11.25;;;3.20;;
25023;SDS011;13033;50.936;5.334;2023-06-26T08:19:11;11.00;;;2.97;;
25023;SDS011;13033;50.936;5.334;2023-06-26T08:21:40;14.68;;;3.55;;
25023;SDS011;13033;50.936;5.334;2023-06-26T08:24:09;11.23;;;3.55;;
25023;SDS011;13033;50.936;5.334;2023-06-26T08:26:35;12.07;;;3.53;;
25023;SDS011;13033;50.936;5.334;2023-06-26T08:29:02;8.98;;;3.35;;
25023;SDS011;13033;50.936;5.334;2023-06-26T08:31:36;13.43;;;3.33;;
25023;SDS011;13033;50.936;5.334;2023-06-26T08:34:03;14.05;;;3.70;;
25023;SDS011;13033;50.936;5.334;2023-06-26T08:36:29;11.20;;;3.58;;
25023;SDS011;13033;50.936;5.334;2023-06-26T08:38:55;9.52;;;3.22;;
25023;SDS011;13033;50.936;5.334;2023-06-26T08:41:21;12.55;;;3.88;;
25023;SDS011;13033;50.936;5.334;2023-06-26T08:43:46;10.43;;;3.17;;
25023;SDS011;13033;50.936;5.334;2023-06-26T08:46:14;7.55;;;3.45;;
25023;SDS011;13033;50.936;5.334;2023-06-26T08:48:40;12.15;;;3.40;;
25023;SDS011;13033;50.936;5.334;2023-06-26T08:51:13;11.45;;;3.70;;
25023;SDS011;13033;50.936;5.334;2023-06-26T08:53:50;12.48;;;3.33;;
25023;SDS011;13033;50.936;5.334;2023-06-26T08:56:21;11.38;;;3.58;;
25023;SDS011;13033;50.936;5.334;2023-06-26T08:58:49;11.15;;;3.72;;
25023;SDS011;13033;50.936;5.334;2023-06-26T09:01:15;9.80;;;3.72;;
25023;SDS011;13033;50.936;5.334;2023-06-26T09:03:42;12.32;;;3.83;;
25023;SDS011;13033;50.936;5.334;2023-06-26T09:06:08;12.05;;;3.40;;
25023;SDS011;13033;50.936;5.334;2023-06-26T09:08:34;8.02;;;3.15;;
25023;SDS011;13033;50.936;5.334;2023-06-26T09:10:59;7.47;;;3.00;;
25023;SDS011;13033;50.936;5.334;2023-06-26T09:13:25;8.93;;;3.10;;
25023;SDS011;13033;50.936;5.334;2023-06-26T09:15:53;8.27;;;2.88;;
25023;SDS011;13033;50.936;5.334;2023-06-26T09:18:20;10.68;;;3.00;;
25023;SDS011;13033;50.936;5.334;2023-06-26T09:20:46;8.02;;;2.92;;
25023;SDS011;13033;50.936;5.334;2023-06-26T09:23:13;9.02;;;2.58;;
25023;SDS011;13033;50.936;5.334;2023-06-26T09:25:41;11.02;;;2.72;;
25023;SDS011;13033;50.936;5.334;2023-06-26T09:28:08;9.13;;;3.00;;
25023;SDS011;13033;50.936;5.334;2023-06-26T09:30:34;4.78;;;2.65;;
25023;SDS011;13033;50.936;5.334;2023-06-26T09:33:17;12.20;;;3.15;;
25023;SDS011;13033;50.936;5.334;2023-06-26T09:35:44;11.07;;;3.20;;
25023;SDS011;13033;50.936;5.334;2023-06-26T09:38:11;8.38;;;2.80;;
25023;SDS011;13033;50.936;5.334;2023-06-26T09:40:37;8.23;;;2.67;;
25023;SDS011;13033;50.936;5.334;2023-06-26T09:43:07;8.10;;;2.58;;
25023;SDS011;13033;50.936;5.334;2023-06-26T09:45:34;10.60;;;2.88;;
25023;SDS011;13033;50.936;5.334;2023-06-26T09:48:03;6.35;;;2.72;;
25023;SDS011;13033;50.936;5.334;2023-06-26T09:50:30;6.45;;;2.30;;
25023;SDS011;13033;50.936;5.334;2023-06-26T09:53:06;8.80;;;2.00;;
25023;SDS011;13033;50.936;5.334;2023-06-26T09:55:36;8.80;;;2.25;;
25023;SDS011;13033;50.936;5.334;2023-06-26T09:58:03;8.65;;;2.63;;
25023;SDS011;13033;50.936;5.334;2023-06-26T10:00:32;5.68;;;2.13;;
25023;SDS011;13033;50.936;5.334;2023-06-26T10:02:58;5.10;;;2.20;;
25023;SDS011;13033;50.936;5.334;2023-06-26T10:05:24;6.28;;;1.90;;
25023;SDS011;13033;50.936;5.334;2023-06-26T10:07:50;4.60;;;1.90;;
25023;SDS011;13033;50.936;5.334;2023-06-26T10:10:17;4.93;;;2.05;;
25023;SDS011;13033;50.936;5.334;2023-06-26T10:12:44;3.60;;;1.80;;
25023;SDS011;13033;50.936;5.334;2023-06-26T10:15:15;8.38;;;1.75;;
25023;SDS011;13033;50.936;5.334;2023-06-26T10:17:42;7.07;;;2.17;;
25023;SDS011;13033;50.936;5.334;2023-06-26T10:20:09;4.70;;;1.67;;
25023;SDS011;13033;50.936;5.334;2023-06-26T10:22:42;6.00;;;1.77;;
25023;SDS011;13033;50.936;5.334;2023-06-26T10:25:10;4.60;;;1.50;;
25023;SDS011;13033;50.936;5.334;2023-06-26T10:27:44;6.72;;;1.60;;
25023;SDS011;13033;50.936;5.334;2023-06-26T10:30:15;5.97;;;1.75;;
25023;SDS011;13033;50.936;5.334;2023-06-26T10:32:44;5.75;;;2.13;;
25023;SDS011;13033;50.936;5.334;2023-06-26T10:35:10;3.72;;;1.48;;
25023;SDS011;13033;50.936;5.334;2023-06-26T10:37:46;8.30;;;2.42;;
25023;SDS011;13033;50.936;5.334;2023-06-26T10:40:13;7.28;;;1.75;;
25023;SDS011;13033;50.936;5.334;2023-06-26T10:42:45;4.60;;;1.42;;
25023;SDS011;13033;50.936;5.334;2023-06-26T10:45:15;3.70;;;1.70;;
25023;SDS011;13033;50.936;5.334;2023-06-26T10:47:42;4.53;;;1.50;;
25023;SDS011;13033;50.936;5.334;2023-06-26T10:50:21;5.03;;;1.42;;
25023;SDS011;13033;50.936;5.334;2023-06-26T10:53:08;4.38;;;1.52;;
25023;SDS011;13033;50.936;5.334;2023-06-26T10:55:49;6.47;;;1.80;;
25023;SDS011;13033;50.936;5.334;2023-06-26T10:58:31;7.68;;;1.30;;
25023;SDS011;13033;50.936;5.334;2023-06-26T11:03:46;4.18;;;1.50;;
25023;SDS011;13033;50.936;5.334;2023-06-26T11:06:29;2.80;;;1.30;;
25023;SDS011;13033;50.936;5.334;2023-06-26T11:14:25;5.07;;;1.40;;
25023;SDS011;13033;50.936;5.334;2023-06-26T11:16:52;4.07;;;1.45;;
25023;SDS011;13033;50.936;5.334;2023-06-26T11:19:20;8.20;;;1.80;;
25023;SDS011;13033;50.936;5.334;2023-06-26T11:21:46;6.57;;;1.85;;
25023;SDS011;13033;50.936;5.334;2023-06-26T11:24:12;4.80;;;1.35;;
25023;SDS011;13033;50.936;5.334;2023-06-26T11:26:39;6.35;;;1.48;;
25023;SDS011;13033;50.936;5.334;2023-06-26T11:29:09;4.82;;;1.67;;
25023;SDS011;13033;50.936;5.334;2023-06-26T11:31:37;3.10;;;1.60;;
25023;SDS011;13033;50.936;5.334;2023-06-26T11:34:04;3.08;;;1.50;;
25023;SDS011;13033;50.936;5.334;2023-06-26T11:36:38;5.18;;;1.40;;
25023;SDS011;13033;50.936;5.334;2023-06-26T11:39:06;8.82;;;1.70;;
25023;SDS011;13033;50.936;5.334;2023-06-26T11:41:36;5.80;;;1.88;;
25023;SDS011;13033;50.936;5.334;2023-06-26T11:44:04;5.68;;;1.50;;
25023;SDS011;13033;50.936;5.334;2023-06-26T11:46:31;2.97;;;1.60;;
25023;SDS011;13033;50.936;5.334;2023-06-26T11:48:58;7.32;;;1.65;;
25023;SDS011;13033;50.936;5.334;2023-06-26T11:51:28;6.15;;;1.88;;
25023;SDS011;13033;50.936;5.334;2023-06-26T11:53:53;5.07;;;1.70;;
25023;SDS011;13033;50.936;5.334;2023-06-26T11:56:19;3.33;;;1.60;;
25023;SDS011;13033;50.936;5.334;2023-06-26T12:01:33;5.50;;;1.67;;
25023;SDS011;13033;50.936;5.334;2023-06-26T12:04:12;6.13;;;1.83;;
25023;SDS011;13033;50.936;5.334;2023-06-26T12:06:43;5.95;;;1.40;;
25023;SDS011;13033;50.936;5.334;2023-06-26T12:09:11;3.45;;;1.42;;
25023;SDS011;13033;50.936;5.334;2023-06-26T12:11:42;6.30;;;1.73;;
25023;SDS011;13033;50.936;5.334;2023-06-26T12:14:08;3.00;;;1.55;;
25023;SDS011;13033;50.936;5.334;2023-06-26T12:16:35;6.65;;;1.55;;
25023;SDS011;13033;50.936;5.334;2023-06-26T12:19:03;3.97;;;1.60;;
25023;SDS011;13033;50.936;5.334;2023-06-26T12:24:12;7.90;;;1.60;;
25023;SDS011;13033;50.936;5.334;2023-06-26T12:26:45;5.13;;;1.63;;
25023;SDS011;13033;50.936;5.334;2023-06-26T12:29:13;4.63;;;1.63;;
25023;SDS011;13033;50.936;5.334;2023-06-26T12:31:44;5.35;;;1.60;;
25023;SDS011;13033;50.936;5.334;2023-06-26T12:34:11;4.70;;;1.45;;
25023;SDS011;13033;50.936;5.334;2023-06-26T12:36:42;2.90;;;1.40;;
25023;SDS011;13033;50.936;5.334;2023-06-26T12:39:12;4.82;;;1.38;;
25023;SDS011;13033;50.936;5.334;2023-06-26T12:41:54;6.22;;;1.70;;
25023;SDS011;13033;50.936;5.334;2023-06-26T12:44:26;7.63;;;1.90;;
25023;SDS011;13033;50.936;5.334;2023-06-26T12:47:01;3.90;;;1.40;;
25023;SDS011;13033;50.936;5.334;2023-06-26T12:52:17;4.28;;;1.48;;
25023;SDS011;13033;50.936;5.334;2023-06-26T12:54:46;3.97;;;1.30;;
25023;SDS011;13033;50.936;5.334;2023-06-26T12:57:16;5.88;;;1.90;;
25023;SDS011;13033;50.936;5.334;2023-06-26T12:59:41;3.10;;;1.45;;
25023;SDS011;13033;50.936;5.334;2023-06-26T13:02:08;5.45;;;1.40;;
25023;SDS011;13033;50.936;5.334;2023-06-26T13:04:36;6.32;;;1.60;;
25023;SDS011;13033;50.936;5.334;2023-06-26T13:07:04;5.72;;;1.75;;
25023;SDS011;13033;50.936;5.334;2023-06-26T13:09:34;3.70;;;1.80;;
25023;SDS011;13033;50.936;5.334;2023-06-26T13:12:00;7.35;;;1.90;;
25023;SDS011;13033;50.936;5.334;2023-06-26T13:14:28;9.98;;;1.98;;
25023;SDS011;13033;50.936;5.334;2023-06-26T13:16:57;5.95;;;1.48;;
25023;SDS011;13033;50.936;5.334;2023-06-26T13:19:23;2.53;;;1.65;;
25023;SDS011;13033;50.936;5.334;2023-06-26T13:21:49;4.00;;;1.70;;
25023;SDS011;13033;50.936;5.334;2023-06-26T13:24:14;5.35;;;1.85;;
25023;SDS011;13033;50.936;5.334;2023-06-26T13:26:40;5.75;;;1.80;;
25023;SDS011;13033;50.936;5.334;2023-06-26T13:29:06;5.93;;;1.65;;
25023;SDS011;13033;50.936;5.334;2023-06-26T13:31:32;3.03;;;1.52;;
25023;SDS011;13033;50.936;5.334;2023-06-26T13:33:58;2.90;;;1.60;;
25023;SDS011;13033;50.936;5.334;2023-06-26T13:36:24;3.22;;;1.50;;
25023;SDS011;13033;50.936;5.334;2023-06-26T13:38:51;3.63;;;1.58;;
25023;SDS011;13033;50.936;5.334;2023-06-26T13:41:21;3.63;;;1.20;;
25023;SDS011;13033;50.936;5.334;2023-06-26T13:43:50;5.28;;;1.40;;
25023;SDS011;13033;50.936;5.334;2023-06-26T13:46:16;4.32;;;1.50;;
25023;SDS011;13033;50.936;5.334;2023-06-26T13:48:42;3.95;;;1.60;;
25023;SDS011;13033;50.936;5.334;2023-06-26T13:51:09;3.83;;;1.48;;
25023;SDS011;13033;50.936;5.334;2023-06-26T13:53:34;4.75;;;2.58;;
25023;SDS011;13033;50.936;5.334;2023-06-26T13:56:00;5.80;;;1.70;;
25023;SDS011;13033;50.936;5.334;2023-06-26T13:58:26;3.05;;;1.30;;
25023;SDS011;13033;50.936;5.334;2023-06-26T14:00:53;7.80;;;1.65;;
25023;SDS011;13033;50.936;5.334;2023-06-26T14:03:19;3.80;;;1.63;;
25023;SDS011;13033;50.936;5.334;2023-06-26T14:05:44;3.13;;;1.42;;
25023;SDS011;13033;50.936;5.334;2023-06-26T14:08:10;3.53;;;1.60;;
25023;SDS011;13033;50.936;5.334;2023-06-26T14:10:36;4.28;;;1.65;;
25023;SDS011;13033;50.936;5.334;2023-06-26T14:13:02;3.85;;;1.52;;
25023;SDS011;13033;50.936;5.334;2023-06-26T14:15:28;5.72;;;1.63;;
25023;SDS011;13033;50.936;5.334;2023-06-26T14:17:55;7.05;;;2.00;;
25023;SDS011;13033;50.936;5.334;2023-06-26T14:20:21;5.43;;;1.80;;
25023;SDS011;13033;50.936;5.334;2023-06-26T14:22:47;4.80;;;1.77;;
25023;SDS011;13033;50.936;5.334;2023-06-26T14:25:13;3.40;;;1.60;;
25023;SDS011;13033;50.936;5.334;2023-06-26T14:27:40;3.92;;;1.67;;
25023;SDS011;13033;50.936;5.334;2023-06-26T14:30:05;4.53;;;1.50;;
25023;SDS011;13033;50.936;5.334;2023-06-26T14:32:32;4.43;;;1.80;;
25023;SDS011;13033;50.936;5.334;2023-06-26T14:34:58;6.13;;;1.55;;
25023;SDS011;13033;50.936;5.334;2023-06-26T14:37:25;4.45;;;1.50;;
25023;SDS011;13033;50.936;5.334;2023-06-26T14:39:51;6.35;;;1.73;;
25023;SDS011;13033;50.936;5.334;2023-06-26T14:42:17;4.78;;;1.80;;
25023;SDS011;13033;50.936;5.334;2023-06-26T14:44:43;8.45;;;2.00;;
25023;SDS011;13033;50.936;5.334;2023-06-26T14:47:11;3.53;;;1.50;;
25023;SDS011;13033;50.936;5.334;2023-06-26T14:49:38;8.07;;;1.73;;
25023;SDS011;13033;50.936;5.334;2023-06-26T14:52:04;5.40;;;1.75;;
25023;SDS011;13033;50.936;5.334;2023-06-26T14:54:30;5.32;;;2.08;;
25023;SDS011;13033;50.936;5.334;2023-06-26T14:56:55;3.50;;;1.40;;
25023;SDS011;13033;50.936;5.334;2023-06-26T14:59:21;6.20;;;1.65;;
25023;SDS011;13033;50.936;5.334;2023-06-26T15:01:46;5.78;;;1.77;;
25023;SDS011;13033;50.936;5.334;2023-06-26T15:04:12;3.53;;;1.77;;